This is the latest recevied weather packets stored in our database for station/object F8KGK-5. If no packets are shown the sender has not sent any weather packets the latest 10 day(s).
| Time | Temp. | Humidity | Pressure | Rain* | Wind** | Luminosity | Snow |
|---|---|---|---|---|---|---|---|
| 1787738854 | 28.89° C | 50% | 1007.7 hPa | 0 mm | - | - | - |
| 1787737055 | 28.33° C | 55% | 1007.8 hPa | 0 mm | - | - | - |
| 1787735254 | 27.78° C | 55% | 1007.8 hPa | 0 mm | - | - | - |
| 1787733457 | 27.78° C | 56% | 1007.8 hPa | 0 mm | - | - | - |
| 1787731655 | 27.22° C | 58% | 1007.5 hPa | 0 mm | - | - | - |
| 1787729855 | 26.67° C | 60% | 1007.6 hPa | 0 mm | - | - | - |
| 1787728054 | 25.56° C | 68% | 1007.5 hPa | 0 mm | - | - | - |
| 1787726254 | 21.67° C | 81% | 1007.4 hPa | 0.51 mm | - | - | - |
| 1787724456 | 18.33° C | 93% | 1007.2 hPa | 0.51 mm | - | - | - |
| 1787722654 | 16.11° C | 91% | 1007.1 hPa | 0 mm | - | - | - |
| 1787720855 | 16.11° C | 91% | 1006.9 hPa | 0 mm | - | - | - |
| 1787719055 | 16.11° C | 91% | 1006.6 hPa | 0 mm | - | - | - |
| 1787717256 | 16.67° C | 91% | 1006.5 hPa | 0 mm | - | - | - |
| 1787715453 | 16.67° C | 90% | 1006.4 hPa | 0 mm | - | - | - |
| 1787713654 | 16.67° C | 90% | 1006.2 hPa | 0 mm | - | - | - |
| 1787711853 | 17.22° C | 89% | 1006.1 hPa | 0 mm | - | - | - |
| 1787710054 | 17.78° C | 89% | 1006.2 hPa | 0 mm | - | - | - |
| 1787708253 | 17.78° C | 89% | 1006 hPa | 0 mm | - | - | - |
| 1787706454 | 17.78° C | 88% | 1006.1 hPa | 0 mm | - | - | - |
| 1787704653 | 17.78° C | 88% | 1006.1 hPa | 0 mm | - | - | - |
| 1787702853 | 17.78° C | 88% | 1006 hPa | 0 mm | - | - | - |
| 1787701053 | 17.78° C | 88% | 1006 hPa | 0 mm | - | - | - |
| 1787699253 | 18.33° C | 87% | 1006 hPa | 0 mm | - | - | - |
| 1787697453 | 18.33° C | 87% | 1005.8 hPa | 0 mm | - | - | - |
| 1787695654 | 18.33° C | 87% | 1005.3 hPa | 0 mm | - | - | - |
* Rain latest hour (hover to see other rain measurements)
** Current wind speed in m/s (hover to see current wind gust speed)